createdAt,value
2018-12-21T00:00:26.383Z,23.30
2018-12-21T00:03:06.004Z,27.63
2018-12-21T00:05:46.533Z,25.87
2018-12-21T00:08:28.304Z,21.83
2018-12-21T00:11:08.170Z,18.97
2018-12-21T00:13:49.862Z,25.20
2018-12-21T00:16:29.552Z,20.97
2018-12-21T00:19:09.420Z,18.13
2018-12-21T00:21:47.610Z,20.93
2018-12-21T00:24:28.712Z,15.70
2018-12-21T00:27:08.290Z,15.60
2018-12-21T00:29:46.924Z,14.10
2018-12-21T00:32:28.274Z,20.93
2018-12-21T00:35:10.534Z,15.00
2018-12-21T00:37:54.963Z,12.37
2018-12-21T00:40:46.281Z,15.47
2018-12-21T00:43:35.260Z,10.93
2018-12-21T00:46:22.424Z,13.67
2018-12-21T00:49:02.789Z,16.10
2018-12-21T00:51:43.658Z,10.93
2018-12-21T00:54:22.371Z,15.00
2018-12-21T00:57:03.414Z,9.30
2018-12-21T00:59:41.957Z,11.23
2018-12-21T01:02:20.823Z,13.30
2018-12-21T01:04:59.149Z,11.37
2018-12-21T01:07:39.587Z,10.67
2018-12-21T01:10:16.572Z,11.17
2018-12-21T01:12:56.005Z,21.53
2018-12-21T01:15:37.301Z,12.67
2018-12-21T01:18:16.684Z,10.57
2018-12-21T01:20:55.782Z,11.83
2018-12-21T01:23:34.965Z,13.33
2018-12-21T01:26:08.565Z,11.50
2018-12-21T01:28:53.267Z,15.23
2018-12-21T01:31:29.821Z,11.53
2018-12-21T01:34:13.543Z,10.00
2018-12-21T01:36:57.786Z,9.10
2018-12-21T01:39:39.544Z,11.03
2018-12-21T01:42:18.389Z,10.70
2018-12-21T01:44:59.624Z,11.37
2018-12-21T01:47:40.495Z,10.03
2018-12-21T01:50:20.328Z,13.53
2018-12-21T01:53:02.240Z,11.77
2018-12-21T01:55:42.589Z,11.83
2018-12-21T01:58:25.138Z,9.40
2018-12-21T02:01:02.233Z,10.87
2018-12-21T02:03:42.029Z,9.73
2018-12-21T02:06:21.331Z,13.80
2018-12-21T02:09:01.519Z,11.63
2018-12-21T02:11:39.180Z,8.33
2018-12-21T02:14:22.349Z,9.67
2018-12-21T02:17:05.142Z,10.13
2018-12-21T02:19:46.132Z,11.53
2018-12-21T02:22:29.765Z,11.47
2018-12-21T02:25:10.065Z,12.67
2018-12-21T02:27:44.879Z,14.27
2018-12-21T02:30:27.426Z,6.40
2018-12-21T02:33:05.380Z,7.87
2018-12-21T02:35:45.696Z,11.40
2018-12-21T02:38:30.725Z,9.50
2018-12-21T02:41:12.051Z,13.23
2018-12-21T02:43:51.018Z,10.43
2018-12-21T02:46:30.256Z,10.50
2018-12-21T02:49:13.952Z,8.33
2018-12-21T02:51:52.023Z,10.70
2018-12-21T02:54:32.664Z,14.73
2018-12-21T02:57:12.280Z,11.33
2018-12-21T02:59:53.725Z,10.70
2018-12-21T03:02:32.509Z,9.90
2018-12-21T03:05:13.013Z,11.63
2018-12-21T03:07:49.534Z,10.23
2018-12-21T03:10:28.118Z,18.73
2018-12-21T03:13:08.478Z,9.40
2018-12-21T03:15:50.190Z,16.67
2018-12-21T03:18:33.846Z,12.73
2018-12-21T03:21:11.722Z,14.67
2018-12-21T03:23:50.191Z,13.47
2018-12-21T03:26:28.081Z,10.60
2018-12-21T03:29:09.821Z,13.67
2018-12-21T03:31:53.515Z,12.97
2018-12-21T03:34:30.507Z,11.20
2018-12-21T03:37:09.644Z,20.40
2018-12-21T03:39:43.867Z,14.10
2018-12-21T03:42:23.076Z,18.77
2018-12-21T03:44:59.026Z,22.63
2018-12-21T03:47:31.258Z,24.63
2018-12-21T03:50:03.631Z,9.57
2018-12-21T03:52:44.627Z,11.17
2018-12-21T03:55:26.541Z,11.03
2018-12-21T03:58:05.127Z,15.83
2018-12-21T04:00:45.567Z,14.40
2018-12-21T04:03:27.054Z,14.30
2018-12-21T04:06:08.299Z,14.40
2018-12-21T04:08:48.697Z,17.37
2018-12-21T04:11:28.159Z,17.13
2018-12-21T04:14:05.672Z,11.70
2018-12-21T04:16:44.987Z,15.60
2018-12-21T04:19:26.958Z,10.77
2018-12-21T04:22:06.317Z,18.10
2018-12-21T04:24:40.251Z,20.57
2018-12-21T04:27:17.723Z,16.70
2018-12-21T04:29:56.534Z,16.07
2018-12-21T04:32:36.949Z,18.07
2018-12-21T04:35:15.952Z,22.63
2018-12-21T04:38:03.567Z,20.33
2018-12-21T04:40:43.951Z,24.03
2018-12-21T04:43:26.149Z,18.23
2018-12-21T04:46:07.823Z,16.73
2018-12-21T04:48:48.299Z,17.07
2018-12-21T04:51:27.479Z,17.23
2018-12-21T04:54:09.016Z,18.80
2018-12-21T04:56:48.182Z,20.50
2018-12-21T04:59:31.227Z,21.87
2018-12-21T05:02:11.834Z,22.83
2018-12-21T05:04:53.994Z,20.23
2018-12-21T05:07:34.087Z,11.10
2018-12-21T05:10:12.972Z,16.80
2018-12-21T05:12:46.464Z,14.23
2018-12-21T05:15:25.086Z,11.47
2018-12-21T05:18:05.345Z,13.30
2018-12-21T05:20:47.719Z,13.40
2018-12-21T05:23:29.222Z,17.10
2018-12-21T05:26:12.772Z,12.17
2018-12-21T05:28:55.797Z,11.10
2018-12-21T05:31:39.249Z,17.30
2018-12-21T05:34:17.246Z,17.73
2018-12-21T05:36:56.718Z,16.03
2018-12-21T05:39:36.894Z,22.70
2018-12-21T05:42:18.668Z,20.17
2018-12-21T05:45:00.279Z,19.17
2018-12-21T05:47:36.850Z,16.53
2018-12-21T05:50:18.041Z,22.60
2018-12-21T05:53:00.918Z,18.83
2018-12-21T05:55:45.650Z,23.17
2018-12-21T05:58:27.044Z,29.10
2018-12-21T06:01:07.091Z,19.17
2018-12-21T06:03:42.424Z,25.73
2018-12-21T06:06:23.939Z,14.17
2018-12-21T06:09:04.652Z,18.47
2018-12-21T06:11:40.871Z,19.43
2018-12-21T06:14:19.235Z,20.37
2018-12-21T06:16:59.880Z,22.57
2018-12-21T06:19:41.689Z,18.73
2018-12-21T06:22:23.191Z,19.80
2018-12-21T06:25:04.925Z,27.17
2018-12-21T06:27:42.713Z,24.20
2018-12-21T06:30:21.826Z,37.20
2018-12-21T06:33:05.570Z,24.27
2018-12-21T06:35:43.212Z,29.80
2018-12-21T06:38:20.163Z,28.67
2018-12-21T06:40:58.351Z,35.90
2018-12-21T06:43:36.346Z,33.07
2018-12-21T06:46:15.623Z,28.47
2018-12-21T06:48:55.168Z,24.67
2018-12-21T06:51:27.546Z,30.70
2018-12-21T06:54:05.379Z,32.10
2018-12-21T06:56:38.485Z,29.23
2018-12-21T06:59:18.154Z,30.80
2018-12-21T07:01:53.436Z,31.87
2018-12-21T07:04:32.236Z,29.33
2018-12-21T07:07:11.002Z,28.40
2018-12-21T07:09:51.091Z,32.97
2018-12-21T07:12:28.636Z,29.27
2018-12-21T07:15:05.277Z,25.70
2018-12-21T07:17:42.494Z,32.30
2018-12-21T07:20:21.683Z,25.00
2018-12-21T07:22:53.967Z,25.20
2018-12-21T07:25:28.019Z,21.87
2018-12-21T07:28:05.755Z,25.03
2018-12-21T07:30:43.103Z,26.20
2018-12-21T07:33:18.483Z,19.20
2018-12-21T07:36:08.296Z,19.53
2018-12-21T07:38:41.448Z,25.23
2018-12-21T07:41:17.574Z,21.73
2018-12-21T07:43:58.003Z,20.43
2018-12-21T07:46:39.896Z,21.03
2018-12-21T07:49:21.128Z,18.37
2018-12-21T07:51:59.654Z,20.03
2018-12-21T07:54:37.204Z,18.73
2018-12-21T07:57:14.835Z,18.73
2018-12-21T07:59:55.651Z,16.03
2018-12-21T08:02:35.091Z,15.93
2018-12-21T08:05:20.837Z,21.63
2018-12-21T08:08:01.375Z,21.93
2018-12-21T08:10:38.164Z,13.87
2018-12-21T08:13:22.814Z,21.67
2018-12-21T08:16:00.371Z,13.20
2018-12-21T08:18:38.858Z,18.20
2018-12-21T08:21:24.043Z,15.90
2018-12-21T08:24:04.808Z,16.23
2018-12-21T08:26:44.359Z,13.10
2018-12-21T08:29:22.917Z,16.57
2018-12-21T08:32:03.343Z,15.53
2018-12-21T08:34:44.665Z,12.47
2018-12-21T08:37:22.395Z,11.33
2018-12-21T08:40:01.515Z,9.57
2018-12-21T08:42:42.793Z,13.33
2018-12-21T08:45:23.464Z,24.03
2018-12-21T08:48:04.614Z,9.40
2018-12-21T08:50:44.478Z,15.73
2018-12-21T08:53:26.592Z,13.27
2018-12-21T08:56:11.361Z,15.27
2018-12-21T08:58:53.086Z,8.87
2018-12-21T09:01:35.539Z,15.73
2018-12-21T09:04:16.082Z,18.00
2018-12-21T09:06:57.136Z,8.73
2018-12-21T09:09:36.689Z,11.27
2018-12-21T09:12:19.316Z,16.13
2018-12-21T09:14:59.764Z,14.00
2018-12-21T09:17:38.587Z,14.17
2018-12-21T09:20:17.764Z,10.50
2018-12-21T09:23:01.347Z,8.53
2018-12-21T09:25:42.628Z,15.07
2018-12-21T09:28:25.449Z,7.20
2018-12-21T09:31:05.545Z,10.83
2018-12-21T09:33:44.106Z,15.77
2018-12-21T09:36:25.434Z,10.57
2018-12-21T09:39:04.296Z,6.47
2018-12-21T09:41:41.057Z,11.30
2018-12-21T09:44:24.870Z,12.07
2018-12-21T09:47:04.197Z,9.40
2018-12-21T09:49:44.888Z,12.30
2018-12-21T09:52:22.740Z,13.63
2018-12-21T09:55:06.631Z,10.40
2018-12-21T09:57:50.575Z,6.03
2018-12-21T10:00:31.088Z,11.33
2018-12-21T10:03:10.255Z,10.53
2018-12-21T10:05:48.593Z,12.90
2018-12-21T10:08:28.487Z,9.10
2018-12-21T10:11:10.222Z,11.70
2018-12-21T10:13:49.707Z,13.50
2018-12-21T10:16:29.407Z,8.73
2018-12-21T10:19:11.777Z,8.47
2018-12-21T10:21:49.489Z,9.47
2018-12-21T10:24:32.758Z,9.00
2018-12-21T10:27:12.639Z,6.73
2018-12-21T10:29:51.538Z,6.73
2018-12-21T10:32:31.231Z,8.87
2018-12-21T10:35:12.791Z,8.37
2018-12-21T10:37:52.935Z,7.90
2018-12-21T10:40:36.730Z,6.53
2018-12-21T10:43:17.889Z,9.00
2018-12-21T10:45:58.837Z,6.07
2018-12-21T10:48:41.848Z,7.67
2018-12-21T10:51:14.194Z,7.80
2018-12-21T10:53:56.313Z,5.03
2018-12-21T10:56:39.308Z,7.50
2018-12-21T10:59:21.185Z,5.00
2018-12-21T11:01:58.806Z,6.27
2018-12-21T11:04:37.271Z,11.47
2018-12-21T11:07:17.863Z,6.93
2018-12-21T11:09:57.290Z,4.43
2018-12-21T11:12:40.721Z,6.97
2018-12-21T11:15:22.339Z,9.50
2018-12-21T11:18:03.942Z,7.43
2018-12-21T11:20:45.413Z,3.77
2018-12-21T11:23:23.709Z,7.43
2018-12-21T11:26:03.323Z,7.00
2018-12-21T11:28:42.824Z,8.53
2018-12-21T11:31:27.979Z,8.33
2018-12-21T11:34:07.447Z,7.30
2018-12-21T11:36:47.717Z,5.40
2018-12-21T11:39:29.803Z,8.10
2018-12-21T11:42:16.276Z,10.47
2018-12-21T11:44:56.036Z,7.50
2018-12-21T11:47:37.681Z,4.87
2018-12-21T11:50:20.643Z,10.50
2018-12-21T11:53:00.331Z,5.23
2018-12-21T11:55:40.779Z,8.87
2018-12-21T11:58:22.266Z,6.43
2018-12-21T12:01:06.166Z,10.47
2018-12-21T12:03:51.031Z,7.40
2018-12-21T12:06:34.388Z,6.33
2018-12-21T12:09:14.181Z,11.27
2018-12-21T12:11:57.127Z,3.73
2018-12-21T12:14:41.225Z,3.83
2018-12-21T12:17:18.051Z,6.33
2018-12-21T12:19:59.942Z,2.70
2018-12-21T12:22:38.993Z,5.03
2018-12-21T12:25:20.199Z,9.00
2018-12-21T12:28:00.707Z,5.17
2018-12-21T12:30:43.498Z,7.93
2018-12-21T12:33:24.320Z,2.60
2018-12-21T12:36:04.462Z,6.97
2018-12-21T12:38:45.821Z,9.03
2018-12-21T12:41:25.897Z,8.37
2018-12-21T12:44:08.535Z,7.03
2018-12-21T12:46:46.268Z,6.80
2018-12-21T12:49:28.489Z,12.23
2018-12-21T12:52:07.357Z,7.77
2018-12-21T12:54:45.822Z,6.13
2018-12-21T12:57:25.085Z,4.87
2018-12-21T13:00:05.484Z,8.57
2018-12-21T13:02:44.497Z,3.90
2018-12-21T13:05:25.587Z,9.30
2018-12-21T13:08:04.820Z,11.13
2018-12-21T13:10:46.468Z,8.67
2018-12-21T13:13:30.564Z,6.33
2018-12-21T13:16:13.748Z,5.60
2018-12-21T13:18:55.290Z,6.83
2018-12-21T13:21:36.555Z,8.30
2018-12-21T13:24:14.944Z,6.97
2018-12-21T13:26:55.433Z,13.97
2018-12-21T13:29:39.024Z,4.97
2018-12-21T13:32:19.629Z,7.50
2018-12-21T13:34:56.418Z,11.63
2018-12-21T13:37:37.703Z,10.10
2018-12-21T13:40:17.120Z,5.27
2018-12-21T13:42:59.809Z,6.60
2018-12-21T13:45:42.506Z,5.80
2018-12-21T13:48:26.801Z,5.83
2018-12-21T13:51:06.367Z,3.30
2018-12-21T13:53:45.331Z,10.33
2018-12-21T13:56:26.296Z,7.07
2018-12-21T13:59:07.799Z,7.87
2018-12-21T14:01:50.552Z,6.53
2018-12-21T14:04:32.612Z,8.47
2018-12-21T14:07:15.601Z,6.63
2018-12-21T14:09:54.695Z,5.37
2018-12-21T14:12:33.958Z,5.30
2018-12-21T14:15:18.346Z,7.27
2018-12-21T14:18:01.293Z,3.80
2018-12-21T14:20:42.156Z,5.30
2018-12-21T14:23:25.553Z,16.60
2018-12-21T14:26:08.389Z,4.80
2018-12-21T14:28:42.688Z,7.97
2018-12-21T14:31:25.611Z,8.47
2018-12-21T14:34:07.731Z,6.33
2018-12-21T14:36:49.073Z,9.30
2018-12-21T14:39:33.367Z,9.43
2018-12-21T14:42:18.704Z,8.67
2018-12-21T14:44:54.770Z,6.63
2018-12-21T14:47:38.424Z,6.90
2018-12-21T14:50:19.769Z,3.50
2018-12-21T14:53:00.950Z,3.87
2018-12-21T14:55:44.787Z,5.93
2018-12-21T14:58:26.429Z,6.20
2018-12-21T15:01:11.401Z,10.43
2018-12-21T15:03:54.011Z,7.07
2018-12-21T15:06:36.421Z,6.00
2018-12-21T15:09:16.819Z,9.13
2018-12-21T15:11:56.132Z,5.73
2018-12-21T15:14:35.325Z,5.33
2018-12-21T15:17:19.510Z,12.13
2018-12-21T15:19:59.836Z,8.83
2018-12-21T15:22:39.969Z,12.80
2018-12-21T15:25:18.410Z,4.50
2018-12-21T15:28:02.551Z,6.13
2018-12-21T15:30:42.094Z,6.50
2018-12-21T15:33:20.811Z,6.93
2018-12-21T15:36:03.153Z,6.70
2018-12-21T15:38:44.689Z,6.50
2018-12-21T15:41:27.703Z,8.80
2018-12-21T15:44:08.620Z,5.77
2018-12-21T15:46:46.713Z,7.10
2018-12-21T15:49:25.653Z,9.47
2018-12-21T15:52:07.568Z,11.70
2018-12-21T15:54:43.478Z,5.40
2018-12-21T15:57:25.455Z,3.93
2018-12-21T16:00:06.170Z,4.23
2018-12-21T16:02:47.109Z,4.43
2018-12-21T16:05:26.126Z,9.73
2018-12-21T16:08:06.447Z,5.17
2018-12-21T16:10:49.246Z,6.70
2018-12-21T16:13:29.671Z,6.80
2018-12-21T16:16:08.165Z,6.63
2018-12-21T16:18:51.880Z,6.90
2018-12-21T16:21:32.518Z,6.30
2018-12-21T16:24:14.486Z,4.63
2018-12-21T16:26:54.224Z,9.47
2018-12-21T16:29:34.393Z,6.10
2018-12-21T16:32:16.006Z,4.60
2018-12-21T16:34:53.171Z,6.43
2018-12-21T16:37:32.648Z,4.67
2018-12-21T16:40:17.353Z,5.40
2018-12-21T16:43:00.050Z,6.57
2018-12-21T16:45:41.287Z,6.90
2018-12-21T16:48:20.843Z,4.93
2018-12-21T16:51:01.695Z,7.83
2018-12-21T16:53:39.461Z,11.33
2018-12-21T16:56:19.628Z,6.50
2018-12-21T16:59:01.990Z,9.70
2018-12-21T17:01:45.302Z,5.83
2018-12-21T17:04:26.988Z,8.87
2018-12-21T17:07:06.584Z,7.50
2018-12-21T17:09:45.278Z,11.60
2018-12-21T17:12:27.521Z,8.53
2018-12-21T17:15:08.139Z,13.20
2018-12-21T17:17:45.830Z,14.23
2018-12-21T17:20:26.270Z,12.13
2018-12-21T17:23:04.495Z,16.77
2018-12-21T17:25:44.973Z,14.63
2018-12-21T17:28:25.613Z,15.00
2018-12-21T17:30:59.765Z,17.80
2018-12-21T17:33:42.853Z,15.77
2018-12-21T17:36:22.336Z,14.67
2018-12-21T17:39:05.435Z,14.47
2018-12-21T17:41:45.348Z,11.90
2018-12-21T17:44:26.592Z,14.27
2018-12-21T17:47:05.028Z,13.97
2018-12-21T17:49:47.468Z,14.97
2018-12-21T17:52:29.686Z,8.90
2018-12-21T17:55:13.157Z,12.93
2018-12-21T17:57:49.492Z,20.67
2018-12-21T18:00:32.110Z,43.37
2018-12-21T18:03:17.349Z,14.00
2018-12-21T18:05:59.190Z,13.20
2018-12-21T18:08:34.863Z,8.50
2018-12-21T18:11:17.845Z,11.10
2018-12-21T18:13:51.716Z,9.33
2018-12-21T18:16:30.026Z,9.87
2018-12-21T18:19:09.656Z,11.80
2018-12-21T18:21:55.405Z,7.13
2018-12-21T18:24:30.530Z,6.77
2018-12-21T18:27:08.002Z,7.10
2018-12-21T18:29:50.999Z,10.47
2018-12-21T18:32:31.985Z,6.77
2018-12-21T18:35:13.731Z,4.43
2018-12-21T18:38:10.982Z,9.13
2018-12-21T18:40:45.163Z,4.70
2018-12-21T18:43:27.863Z,4.37
2018-12-21T18:46:01.918Z,4.57
2018-12-21T18:48:38.267Z,4.37
2018-12-21T18:51:14.080Z,3.80
2018-12-21T18:53:47.338Z,3.93
2018-12-21T18:56:25.687Z,7.07
2018-12-21T18:59:05.108Z,14.80
2018-12-21T19:01:41.971Z,4.57
2018-12-21T19:04:20.165Z,4.87
2018-12-21T19:06:58.726Z,5.63
2018-12-21T19:09:39.623Z,5.00
2018-12-21T19:12:14.839Z,3.70
2018-12-21T19:14:54.704Z,6.40
2018-12-21T19:17:37.000Z,3.77
2018-12-21T19:20:15.202Z,5.57
2018-12-21T19:22:50.157Z,6.20
2018-12-21T19:25:27.929Z,5.30
2018-12-21T19:28:03.895Z,4.47
2018-12-21T19:30:39.984Z,6.57
2018-12-21T19:33:18.492Z,5.77
2018-12-21T19:35:52.897Z,6.30
2018-12-21T19:38:30.906Z,10.60
2018-12-21T19:41:09.044Z,5.27
2018-12-21T19:43:44.627Z,5.37
2018-12-21T19:46:23.139Z,9.10
2018-12-21T19:49:00.735Z,6.27
2018-12-21T19:51:36.024Z,5.63
2018-12-21T19:54:15.182Z,8.53
2018-12-21T19:57:04.671Z,12.77
2018-12-21T19:59:42.379Z,11.77
2018-12-21T20:02:16.888Z,4.90
2018-12-21T20:04:52.967Z,5.33
2018-12-21T20:07:28.531Z,4.70
2018-12-21T20:10:06.418Z,9.27
2018-12-21T20:12:39.208Z,12.37
2018-12-21T20:15:12.929Z,9.07
2018-12-21T20:17:51.192Z,14.50
2018-12-21T20:20:29.542Z,12.93
2018-12-21T20:23:08.047Z,15.27
2018-12-21T20:25:44.878Z,14.87
2018-12-21T20:28:23.954Z,14.83
2018-12-21T20:31:02.042Z,21.43
2018-12-21T20:33:37.438Z,15.90
2018-12-21T20:36:10.044Z,24.10
2018-12-21T20:38:44.699Z,15.10
2018-12-21T20:41:20.305Z,17.20
2018-12-21T20:43:56.818Z,22.97
2018-12-21T20:46:32.314Z,17.17
2018-12-21T20:49:08.690Z,21.83
2018-12-21T20:51:45.554Z,8.67
2018-12-21T20:54:19.175Z,13.37
2018-12-21T20:57:04.795Z,11.67
2018-12-21T20:59:42.847Z,9.57
2018-12-21T21:02:17.364Z,9.80
2018-12-21T21:04:55.712Z,14.07
2018-12-21T21:07:32.134Z,12.17
2018-12-21T21:10:12.964Z,11.20
2018-12-21T21:12:47.347Z,14.93
2018-12-21T21:15:26.909Z,9.23
2018-12-21T21:18:05.554Z,16.17
2018-12-21T21:20:45.739Z,13.27
2018-12-21T21:23:23.145Z,7.60
2018-12-21T21:25:58.993Z,17.03
2018-12-21T21:28:33.681Z,10.57
2018-12-21T21:31:07.978Z,17.63
2018-12-21T21:33:45.388Z,10.27
2018-12-21T21:36:20.892Z,19.57
2018-12-21T21:38:57.534Z,12.20
2018-12-21T21:41:34.161Z,14.77
2018-12-21T21:44:11.391Z,17.80
2018-12-21T21:46:45.569Z,13.97
2018-12-21T21:49:20.664Z,17.53
2018-12-21T21:51:55.562Z,14.87
2018-12-21T21:54:30.655Z,25.00
2018-12-21T21:57:04.406Z,17.03
2018-12-21T21:59:43.603Z,13.50
2018-12-21T22:02:24.360Z,11.43
2018-12-21T22:05:05.825Z,15.93
2018-12-21T22:07:48.018Z,14.43
2018-12-21T22:10:22.782Z,14.80
2018-12-21T22:12:56.034Z,19.43
2018-12-21T22:15:30.666Z,15.37
2018-12-21T22:18:06.937Z,10.70
2018-12-21T22:20:44.771Z,14.97
2018-12-21T22:23:24.238Z,8.43
2018-12-21T22:26:04.503Z,16.50
2018-12-21T22:28:44.270Z,8.60
2018-12-21T22:31:24.095Z,18.33
2018-12-21T22:34:06.400Z,15.97
2018-12-21T22:36:44.126Z,10.60
2018-12-21T22:39:26.211Z,18.03
2018-12-21T22:42:07.393Z,13.87
2018-12-21T22:44:47.992Z,5.37
2018-12-21T22:47:29.457Z,12.67
2018-12-21T22:50:13.383Z,17.00
2018-12-21T22:52:54.040Z,6.70
2018-12-21T22:55:34.990Z,17.00
2018-12-21T22:58:14.246Z,10.97
2018-12-21T23:00:54.153Z,14.13
2018-12-21T23:03:33.959Z,10.27
2018-12-21T23:06:15.441Z,8.53
2018-12-21T23:08:55.307Z,9.70
2018-12-21T23:11:39.641Z,9.77
2018-12-21T23:14:23.392Z,10.37
2018-12-21T23:17:02.560Z,9.40
2018-12-21T23:19:44.223Z,7.03
2018-12-21T23:22:28.364Z,6.67
2018-12-21T23:25:09.831Z,10.77
2018-12-21T23:27:53.047Z,6.47
2018-12-21T23:30:35.511Z,13.50
2018-12-21T23:33:15.433Z,12.50
2018-12-21T23:35:58.718Z,12.07
2018-12-21T23:38:39.652Z,8.57
2018-12-21T23:41:21.635Z,12.90
2018-12-21T23:44:00.236Z,10.90
2018-12-21T23:46:38.606Z,6.80
2018-12-21T23:49:19.171Z,16.50
2018-12-21T23:52:00.483Z,15.00
2018-12-21T23:54:40.352Z,14.23
2018-12-21T23:57:21.743Z,9.53
